Fort Bragg, CA (95437)

11:14 PM PST on February 12, 2016 (GMT -0800)
Hocker Ln. Fort Bragg CA | | Change Station
CLOSE
Current Station
Personal Weather Station
Location: Fort Bragg, CA
Elevation: 177 ft
Nearby Weather Stations

Elev 177 ft 39.44 °N, 123.78 °W | Updated 13 minutes ago

Overcast
Overcast
51.0 °F
Feels Like 51.0 °F
N
2.7
Wind Variable Wind from NE

Today
High -- | Low -- °F
--% Chance of Precip.
Yesterday
High -- | Low -- °F
Precip. -- in
Pressure 30.24 in
Visibility 10.0 miles
Clouds Clear
Dew Point 50 °F
Humidity 95%
Rainfall 0.00 in
Snow Depth Not available.
7:11 AM 5:48 PM
Waxing Crescent, 28% visible
METAR KUKI 130656Z AUTO 00000KT 10SM CLR 11/09 A3025 RMK AO2 SLP240 T01110094
Pressure 30.24 in
Visibility 10.0 miles
Clouds Clear
Dew Point 50 °F
Humidity 95%
Rainfall 0.00 in
Snow Depth Not available.
7:11 AM 5:48 PM
Waxing Crescent, 28% visible
METAR KUKI 130656Z AUTO 00000KT 10SM CLR 11/09 A3025 RMK AO2 SLP240 T01110094

10-Day Weather Forecast

Almanac

Astronomy

Feb. 12, 2016 Rise Set
Actual Time
Civil Twilight
Nautical Twilight
Astronomical Twilight
Moon
Length of Visible Light
Length of Day
Tomorrow will be .
, % of the Moon is Illuminated

Today's Extremes

State Highs State Lows

Community

WunderPhotos

Upload Photos

1,892,526 photos uploaded!

WunderBlog® & News

Nearby

Air Quality

  Air Quality AQ Index Pollutant
Not available.

Snow Depth

Station Depth Elevation

Earthquake Activity

City Distance Mag. Time & Date
Minimum magnitude displayed is 2.5.

Coastal Water Temperatures

Place Temperature

Stations

Nearby Weather Stations

Station Location Temp. Windchill Dew Point Humidity Wind Precip. Elev Updated Type
                   

Watches & Warnings

There are currently no watches in effect.